Time;durP1;ratioP1;P1;durP2;ratioP2;P2;SDS_P1;SDS_P2;PMS_P1;PMS_P2;Temp;Humidity;BMP_temperature;BMP_pressure;BME280_temperature;BME280_humidity;BME280_pressure;Samples;Min_cycle;Max_cycle;Signal;HPM_P1;HPM_P2
2021/05/24 00:01:51;;;;;;;2.97;0.88;;;;;;;12.19;100.00;100909.97;5223514;28;20043;-85
2021/05/24 00:04:21;;;;;;;2.63;0.70;;;;;;;12.18;100.00;100918.22;5223826;28;20025;-85
2021/05/24 00:06:52;;;;;;;1.38;0.77;;;;;;;12.18;100.00;100919.06;5223255;28;20033;-85
2021/05/24 00:09:22;;;;;;;2.83;0.70;;;;;;;12.18;100.00;100902.09;5223292;28;20104;-85
2021/05/24 00:11:53;;;;;;;7.30;1.27;;;;;;;12.13;100.00;100901.78;5223622;28;20052;-85
2021/05/24 00:14:26;;;;;;;4.32;1.40;;;;;;;12.08;100.00;100896.94;5223587;28;20060;-85
2021/05/24 00:16:57;;;;;;;2.22;0.82;;;;;;;12.11;100.00;100887.69;5223782;28;20025;-85
2021/05/24 00:19:27;;;;;;;3.13;0.60;;;;;;;12.11;100.00;100890.38;5222738;28;20041;-85
2021/05/24 00:21:58;;;;;;;3.38;0.80;;;;;;;12.15;100.00;100881.78;5223456;28;20029;-86
2021/05/24 00:24:28;;;;;;;2.85;0.70;;;;;;;12.17;100.00;100882.44;5223723;28;20100;-86
2021/05/24 00:26:58;;;;;;;2.08;0.80;;;;;;;12.14;100.00;100881.94;5223706;28;20447;-85
2021/05/24 00:29:29;;;;;;;1.70;0.77;;;;;;;12.16;100.00;100878.06;5223093;28;20025;-85
2021/05/24 00:32:00;;;;;;;5.38;1.00;;;;;;;12.13;100.00;100875.72;5223511;28;20021;-86
2021/05/24 00:34:30;;;;;;;2.08;0.90;;;;;;;12.12;100.00;100871.38;5223711;28;20499;-86
2021/05/24 00:37:01;;;;;;;3.55;1.13;;;;;;;12.16;100.00;100875.38;5223215;28;20036;-85
2021/05/24 00:39:31;;;;;;;2.47;0.70;;;;;;;12.13;100.00;100867.66;5223237;28;20047;-85
2021/05/24 00:42:02;;;;;;;2.85;0.73;;;;;;;12.15;100.00;100867.50;5223504;28;20029;-85
2021/05/24 00:44:33;;;;;;;1.63;0.80;;;;;;;12.15;100.00;100862.13;5223112;28;20025;-85
2021/05/24 00:47:04;;;;;;;2.67;0.80;;;;;;;12.19;100.00;100858.88;5223612;28;20025;-85
2021/05/24 00:49:34;;;;;;;5.07;0.73;;;;;;;12.16;100.00;100853.88;5223253;28;20025;-85
2021/05/24 00:52:05;;;;;;;7.97;0.95;;;;;;;12.13;100.00;100856.91;5223247;28;20040;-85
2021/05/24 00:54:36;;;;;;;3.00;0.90;;;;;;;12.12;100.00;100852.53;5223661;28;20095;-85
2021/05/24 00:57:07;;;;;;;3.03;0.80;;;;;;;12.12;100.00;100846.34;5222395;28;20021;-85
2021/05/24 00:59:38;;;;;;;3.60;1.00;;;;;;;12.13;100.00;100854.22;5225641;28;20025;-85
2021/05/24 01:02:08;;;;;;;3.42;0.73;;;;;;;12.09;100.00;100836.75;5227916;28;20035;-85
2021/05/24 01:04:39;;;;;;;1.33;0.68;;;;;;;12.12;100.00;100840.94;5227469;28;20029;-85
2021/05/24 01:07:10;;;;;;;5.93;0.95;;;;;;;12.08;100.00;100840.47;5227132;28;20051;-85
2021/05/24 01:09:40;;;;;;;3.95;0.80;;;;;;;12.03;100.00;100836.63;5225368;28;20040;-85
2021/05/24 01:12:11;;;;;;;3.90;0.70;;;;;;;12.02;100.00;100830.41;5226880;28;20048;-85
2021/05/24 01:14:42;;;;;;;6.10;1.13;;;;;;;12.01;100.00;100822.53;5226725;28;20113;-85
2021/05/24 01:17:12;;;;;;;7.03;0.80;;;;;;;12.00;100.00;100819.00;5226321;28;20036;-85
2021/05/24 01:19:45;;;;;;;1.65;0.98;;;;;;;12.07;100.00;100822.66;5225988;28;20143;-85
2021/05/24 01:22:20;;;;;;;5.68;1.02;;;;;;;12.05;100.00;100813.06;5226501;28;20482;-85
2021/05/24 01:24:51;;;;;;;7.07;0.80;;;;;;;12.03;100.00;100809.75;5226538;28;20028;-85
2021/05/24 01:27:21;;;;;;;7.20;1.13;;;;;;;12.01;100.00;100807.22;5226251;28;20017;-85
2021/05/24 01:29:52;;;;;;;4.28;0.90;;;;;;;12.00;100.00;100805.56;5226212;28;20108;-85
2021/05/24 01:32:22;;;;;;;2.70;0.93;;;;;;;11.99;100.00;100794.97;5225813;28;20034;-85
2021/05/24 01:34:54;;;;;;;1.45;0.68;;;;;;;11.99;100.00;100795.81;5226206;28;20033;-85
2021/05/24 01:37:26;;;;;;;4.72;0.93;;;;;;;12.01;100.00;100787.59;5226189;28;20548;-85
2021/05/24 01:40:16;;;;;;;5.50;1.30;;;;;;;11.96;100.00;100790.78;5225978;28;20024;-85
2021/05/24 01:42:47;;;;;;;1.50;0.60;;;;;;;11.96;100.00;100795.34;5225719;28;20453;-85
2021/05/24 01:45:18;;;;;;;5.82;0.80;;;;;;;11.97;100.00;100794.31;5226284;28;20028;-85
2021/05/24 01:47:49;;;;;;;2.83;0.77;;;;;;;12.01;100.00;100792.97;5225962;28;20542;-85
2021/05/24 01:50:21;;;;;;;2.70;0.75;;;;;;;11.97;100.00;100784.41;5225629;28;20029;-85
2021/05/24 01:52:52;;;;;;;5.60;0.98;;;;;;;11.95;100.00;100778.38;5226055;28;20021;-85
2021/05/24 01:55:24;;;;;;;5.53;0.80;;;;;;;11.92;100.00;100786.78;5225562;28;20488;-85
2021/05/24 01:57:55;;;;;;;4.45;1.20;;;;;;;11.87;100.00;100781.09;5220726;28;20040;-85
2021/05/24 02:00:26;;;;;;;2.72;0.85;;;;;;;11.86;100.00;100787.50;5225364;28;20031;-85
2021/05/24 02:02:57;;;;;;;5.40;0.98;;;;;;;11.82;100.00;100783.47;5225476;28;20031;-85
2021/05/24 02:05:29;;;;;;;3.60;1.25;;;;;;;11.83;100.00;100787.84;5225769;28;20021;-85
2021/05/24 02:07:59;;;;;;;3.63;0.98;;;;;;;11.82;100.00;100781.63;5224595;28;20024;-85
2021/05/24 02:10:37;;;;;;;3.20;1.30;;;;;;;11.76;100.00;100779.59;5225735;28;20092;-85
2021/05/24 02:13:08;;;;;;;3.92;0.95;;;;;;;11.75;100.00;100777.09;5225356;28;20030;-85
2021/05/24 02:15:41;;;;;;;3.63;0.80;;;;;;;11.78;100.00;100779.44;5225993;28;20021;-85
2021/05/24 02:18:12;;;;;;;2.97;0.85;;;;;;;11.70;100.00;100774.94;5224787;28;20033;-85
2021/05/24 02:20:43;;;;;;;1.60;0.80;;;;;;;11.70;100.00;100787.50;5225073;28;20033;-85
2021/05/24 02:23:13;;;;;;;3.50;1.17;;;;;;;11.69;100.00;100781.31;5225385;28;20028;-85
2021/05/24 02:25:44;;;;;;;2.05;0.88;;;;;;;11.67;100.00;100778.81;5225200;28;20530;-85
2021/05/24 02:28:14;;;;;;;1.58;0.93;;;;;;;11.66;100.00;100776.31;5225256;28;20055;-85
2021/05/24 02:30:45;;;;;;;5.97;0.88;;;;;;;11.68;100.00;100783.16;5224432;28;20495;-85
2021/05/24 02:33:16;;;;;;;4.15;0.85;;;;;;;11.66;100.00;100781.69;5225153;28;20017;-85
2021/05/24 02:35:46;;;;;;;2.35;0.70;;;;;;;11.63;100.00;100771.25;5225023;28;20043;-85
2021/05/24 02:38:16;;;;;;;5.07;0.73;;;;;;;11.63;100.00;100772.09;5225460;28;20036;-85
2021/05/24 02:40:47;;;;;;;3.20;0.93;;;;;;;11.60;100.00;100766.25;5224967;28;20495;-84
2021/05/24 02:43:17;;;;;;;2.50;0.65;;;;;;;11.60;100.00;100763.56;5224737;28;20037;-85
2021/05/24 02:45:49;;;;;;;4.10;0.90;;;;;;;11.55;100.00;100771.31;5223879;28;20028;-85
2021/05/24 02:48:19;;;;;;;2.92;0.80;;;;;;;11.57;100.00;100772.81;5224109;28;20033;-84
2021/05/24 02:50:50;;;;;;;2.45;0.70;;;;;;;11.56;100.00;100776.50;5222779;28;20071;-85
2021/05/24 02:53:20;;;;;;;4.55;1.00;;;;;;;11.55;100.00;100771.31;5224351;28;20099;-85
2021/05/24 02:55:51;;;;;;;4.75;0.90;;;;;;;11.55;100.00;100780.22;5222729;28;20124;-85
2021/05/24 02:58:21;;;;;;;2.28;0.80;;;;;;;11.55;100.00;100750.66;5221053;28;20459;-85
2021/05/24 03:00:52;;;;;;;6.32;0.90;;;;;;;11.58;100.00;100776.31;5224201;28;20040;-85
2021/05/24 03:03:24;;;;;;;5.97;1.10;;;;;;;11.58;100.00;100774.47;5224534;28;20046;-85
2021/05/24 03:05:54;;;;;;;6.15;1.08;;;;;;;11.58;100.00;100757.53;5224725;28;20024;-84
2021/05/24 03:08:25;;;;;;;4.95;1.00;;;;;;;11.58;100.00;100762.88;5224538;28;20032;-85
2021/05/24 03:10:55;;;;;;;4.70;0.88;;;;;;;11.66;100.00;100771.75;5224504;28;20198;-85
2021/05/24 03:13:27;;;;;;;2.92;0.98;;;;;;;11.69;100.00;100770.56;5225065;28;20075;-84
2021/05/24 03:15:57;;;;;;;3.17;1.40;;;;;;;11.67;100.00;100751.09;5225056;28;20096;-85
2021/05/24 03:18:28;;;;;;;4.07;1.10;;;;;;;11.68;100.00;100747.38;5224101;28;20129;-84
2021/05/24 03:20:59;;;;;;;4.82;0.90;;;;;;;11.67;100.00;100753.78;5224832;28;20048;-84
2021/05/24 03:23:29;;;;;;;4.38;0.80;;;;;;;11.71;100.00;100747.06;5225599;28;20503;-85
2021/05/24 03:26:00;;;;;;;4.95;1.10;;;;;;;11.75;100.00;100760.97;5225367;28;20075;-85
2021/05/24 03:28:30;;;;;;;2.97;0.95;;;;;;;11.76;100.00;100762.66;5225485;28;20111;-84
2021/05/24 03:31:01;;;;;;;3.20;0.85;;;;;;;11.75;100.00;100764.50;5224460;28;20032;-84
2021/05/24 03:33:31;;;;;;;2.58;0.80;;;;;;;11.84;100.00;100773.38;5225012;28;20135;-84
2021/05/24 03:36:02;;;;;;;6.50;0.95;;;;;;;11.91;100.00;100783.25;5224599;28;20064;-84
2021/05/24 03:38:33;;;;;;;3.38;0.80;;;;;;;12.11;100.00;100785.50;5224445;28;20029;-84
2021/05/24 03:41:04;;;;;;;1.83;0.32;;;;;;;12.25;100.00;100765.06;5224501;28;20028;-84
2021/05/24 03:43:34;;;;;;;2.38;0.40;;;;;;;12.31;100.00;100759.81;5223697;28;20021;-83
2021/05/24 03:46:05;;;;;;;2.03;0.50;;;;;;;12.30;100.00;100765.34;5224695;28;20111;-84
2021/05/24 03:48:37;;;;;;;2.17;0.30;;;;;;;12.32;100.00;100776.78;5224364;28;20024;-85
2021/05/24 03:51:09;;;;;;;1.88;0.40;;;;;;;12.22;100.00;100773.50;5224399;28;20029;-84
2021/05/24 03:53:39;;;;;;;0.80;0.30;;;;;;;12.13;100.00;100768.16;5225144;28;20028;-85
2021/05/24 03:56:12;;;;;;;1.38;0.40;;;;;;;11.99;100.00;100782.34;5223212;28;20013;-85
2021/05/24 03:58:43;;;;;;;3.70;0.52;;;;;;;11.85;100.00;100780.44;5226450;28;20029;-85
2021/05/24 04:01:14;;;;;;;2.33;0.60;;;;;;;11.68;100.00;100788.53;5226024;28;20032;-85
2021/05/24 04:03:44;;;;;;;2.55;0.47;;;;;;;11.58;100.00;100779.00;5227432;28;20047;-85
2021/05/24 04:06:16;;;;;;;0.93;0.40;;;;;;;11.44;100.00;100780.56;5240346;28;20033;-85
2021/05/24 04:08:47;;;;;;;12.25;1.23;;;;;;;11.26;100.00;100788.03;5228324;28;20032;-84
2021/05/24 04:11:18;;;;;;;1.85;0.40;;;;;;;11.20;100.00;100786.03;5227427;28;20029;-85
2021/05/24 04:13:52;;;;;;;4.47;0.60;;;;;;;11.12;100.00;100782.34;5228101;28;20025;-84
2021/05/24 04:16:23;;;;;;;3.58;0.70;;;;;;;11.00;100.00;100770.31;5227209;28;20032;-85
2021/05/24 04:18:53;;;;;;;1.50;0.60;;;;;;;10.99;100.00;100781.19;5226082;28;20480;-83
2021/05/24 04:21:24;;;;;;;1.40;0.30;;;;;;;10.96;100.00;100777.03;5237947;28;20017;-84
2021/05/24 04:23:54;;;;;;;1.02;0.30;;;;;;;11.02;100.00;100780.88;5227431;28;20070;-84
2021/05/24 04:26:25;;;;;;;0.57;0.40;;;;;;;10.91;100.00;100775.84;5228999;28;20040;-85
2021/05/24 04:28:55;;;;;;;0.73;0.50;;;;;;;10.83;100.00;100780.22;5226125;28;20033;-84
2021/05/24 04:31:26;;;;;;;1.20;0.60;;;;;;;10.75;100.00;100782.09;5229965;28;20031;-84
2021/05/24 04:33:57;;;;;;;2.08;0.50;;;;;;;10.61;100.00;100789.78;5231775;28;20537;-84
2021/05/24 04:36:27;;;;;;;1.55;0.63;;;;;;;10.64;100.00;100785.91;5233616;28;20035;-85
2021/05/24 04:38:58;;;;;;;2.38;0.57;;;;;;;10.55;100.00;100786.97;5232054;28;20079;-84
2021/05/24 04:41:28;;;;;;;3.90;0.40;;;;;;;10.44;100.00;100777.41;5231966;28;20064;-84
2021/05/24 04:44:10;;;;;;;1.05;0.50;;;;;;;10.34;100.00;100774.00;5231230;28;20025;-84
2021/05/24 04:46:41;;;;;;;1.73;0.50;;;;;;;10.26;100.00;100776.69;5232337;28;20112;-84
2021/05/24 04:49:11;;;;;;;2.85;0.75;;;;;;;10.18;100.00;100773.97;5233249;28;20594;-84
2021/05/24 04:51:42;;;;;;;2.88;0.80;;;;;;;10.14;100.00;100770.81;5230959;28;20039;-84
2021/05/24 04:54:13;;;;;;;4.93;0.95;;;;;;;10.20;100.00;100775.50;5232064;28;20426;-83
2021/05/24 04:56:43;;;;;;;1.58;0.60;;;;;;;10.09;100.00;100775.78;5232079;28;20216;-84
2021/05/24 04:59:14;;;;;;;2.20;0.85;;;;;;;10.00;100.00;100776.81;5234935;28;20112;-83
2021/05/24 05:01:47;;;;;;;2.75;0.68;;;;;;;9.93;100.00;100765.03;5235297;28;20052;-84
2021/05/24 05:04:18;;;;;;;2.42;0.63;;;;;;;9.93;100.00;100765.03;5237498;28;20033;-84
2021/05/24 05:06:48;;;;;;;2.15;1.20;;;;;;;9.87;100.00;100766.53;5238548;28;20036;-84
2021/05/24 05:09:19;;;;;;;3.00;0.88;;;;;;;9.89;100.00;100767.22;5233347;28;20391;-84
2021/05/24 05:11:49;;;;;;;2.60;0.93;;;;;;;9.85;100.00;100766.72;5234092;28;20025;-84
2021/05/24 05:14:21;;;;;;;4.28;1.40;;;;;;;9.87;100.00;100769.22;5231549;28;20040;-84
2021/05/24 05:16:52;;;;;;;5.35;0.95;;;;;;;9.89;100.00;100772.59;5231965;28;20024;-84
2021/05/24 05:19:22;;;;;;;1.33;0.77;;;;;;;9.92;100.00;100768.72;5230157;28;20079;-83
2021/05/24 05:21:53;;;;;;;3.13;0.88;;;;;;;9.92;100.00;100772.25;5230199;28;20028;-84
2021/05/24 05:24:23;;;;;;;7.18;0.85;;;;;;;9.92;100.00;100760.69;5232674;28;20028;-84
2021/05/24 05:26:54;;;;;;;6.18;1.00;;;;;;;9.95;100.00;100765.72;5230206;28;20593;-84
2021/05/24 05:29:24;;;;;;;2.55;1.20;;;;;;;9.96;100.00;100770.09;5230332;28;20457;-84
2021/05/24 05:31:55;;;;;;;6.65;1.30;;;;;;;9.95;100.00;100765.72;5229972;28;20037;-83
2021/05/24 05:34:25;;;;;;;1.98;1.10;;;;;;;10.00;100.00;100766.91;5229940;28;20472;-83
2021/05/24 05:36:56;;;;;;;2.60;1.00;;;;;;;10.01;100.00;100760.53;5229461;28;20124;-84
2021/05/24 05:39:26;;;;;;;3.58;0.77;;;;;;;10.07;100.00;100772.44;5229666;28;20025;-84
2021/05/24 05:41:58;;;;;;;1.15;0.77;;;;;;;10.09;100.00;100762.38;5228202;28;20053;-84
2021/05/24 05:44:28;;;;;;;2.38;0.90;;;;;;;10.11;100.00;100763.06;5228355;28;20025;-84
2021/05/24 05:46:58;;;;;;;4.78;1.13;;;;;;;10.20;100.00;100756.72;5229608;28;20032;-84
2021/05/24 05:49:29;;;;;;;4.97;0.98;;;;;;;10.16;100.00;100754.53;5229920;28;20029;-83
2021/05/24 05:51:59;;;;;;;13.50;1.25;;;;;;;10.23;100.00;100756.38;5231332;28;20039;-83
2021/05/24 05:54:30;;;;;;;2.63;1.50;;;;;;;10.35;100.00;100760.47;5232711;28;20021;-84
2021/05/24 05:57:00;;;;;;;2.33;1.27;;;;;;;10.45;100.00;100746.06;5223098;28;20024;-84
2021/05/24 05:59:31;;;;;;;1.20;0.70;;;;;;;10.50;100.00;100765.16;5231328;28;20025;-85
2021/05/24 06:02:01;;;;;;;3.45;0.73;;;;;;;10.45;100.00;100760.28;5231831;28;20054;-85
2021/05/24 06:04:32;;;;;;;3.97;1.42;;;;;;;10.45;100.00;100754.94;5233813;28;20029;-84
2021/05/24 06:07:03;;;;;;;4.78;0.80;;;;;;;10.51;100.00;100758.78;5231855;28;20087;-84
2021/05/24 06:09:33;;;;;;;1.23;0.88;;;;;;;10.60;100.00;100766.66;5232844;28;20033;-84
2021/05/24 06:12:04;;;;;;;4.80;0.85;;;;;;;10.70;100.00;100755.75;5230889;28;20533;-84
2021/05/24 06:14:36;;;;;;;2.60;0.82;;;;;;;10.63;100.00;100758.25;5231550;28;20087;-85
2021/05/24 06:17:06;;;;;;;2.83;0.70;;;;;;;10.70;100.00;100758.44;5229616;28;20029;-85
2021/05/24 06:19:37;;;;;;;2.78;1.33;;;;;;;10.76;100.00;100760.44;5227894;28;20553;-85
2021/05/24 06:22:07;;;;;;;2.75;1.48;;;;;;;10.75;100.00;100753.41;5226779;28;20033;-84
2021/05/24 06:24:38;;;;;;;2.72;0.70;;;;;;;10.86;100.00;100754.91;5227000;28;20028;-84
2021/05/24 06:27:08;;;;;;;3.25;0.98;;;;;;;10.81;100.00;100754.56;5226844;28;20025;-84
2021/05/24 06:29:39;;;;;;;3.17;0.90;;;;;;;10.98;100.00;100764.25;5226374;28;20032;-84
2021/05/24 06:32:09;;;;;;;3.53;1.38;;;;;;;11.10;100.00;100754.00;5226090;28;20039;-83
2021/05/24 06:34:40;;;;;;;2.05;0.85;;;;;;;10.95;100.00;100761.09;5227503;28;20100;-84
2021/05/24 06:37:10;;;;;;;2.50;0.88;;;;;;;10.88;100.00;100767.13;5227083;28;20025;-84
2021/05/24 06:39:41;;;;;;;2.80;0.68;;;;;;;10.98;100.00;100761.56;5225965;28;20021;-84
2021/05/24 06:42:11;;;;;;;3.55;1.02;;;;;;;10.91;100.00;100757.91;5225548;28;20075;-84
2021/05/24 06:44:42;;;;;;;6.35;0.93;;;;;;;10.88;100.00;100769.81;5226252;28;20024;-84
2021/05/24 06:47:12;;;;;;;3.85;1.00;;;;;;;10.71;100.00;100765.47;5227677;28;20036;-85
2021/05/24 06:49:43;;;;;;;4.78;0.90;;;;;;;10.81;100.00;100760.78;5218006;28;20048;-84
2021/05/24 06:52:13;;;;;;;4.88;1.10;;;;;;;10.77;100.00;100761.28;5221277;28;20056;-85
2021/05/24 06:54:44;;;;;;;2.72;1.20;;;;;;;10.74;100.00;100759.75;5226936;28;20044;-84
2021/05/24 06:57:14;;;;;;;5.45;1.30;;;;;;;10.67;100.00;100763.31;5217723;28;20162;-84
2021/05/24 06:59:45;;;;;;;2.03;1.15;;;;;;;10.63;100.00;100754.75;5222458;28;20025;-84
2021/05/24 07:02:16;;;;;;;5.72;1.15;;;;;;;10.78;100.00;100760.25;5224369;28;20060;-84
2021/05/24 07:04:47;;;;;;;2.42;1.10;;;;;;;10.70;100.00;100758.44;5212749;28;20037;-84
2021/05/24 07:07:17;;;;;;;7.22;1.40;;;;;;;10.68;100.00;100760.44;5211797;28;20025;-84
2021/05/24 07:09:48;;;;;;;4.13;1.08;;;;;;;10.73;100.00;100762.63;5223500;28;20103;-84
2021/05/24 07:12:18;;;;;;;1.52;0.90;;;;;;;10.66;100.00;100764.31;5225156;28;20052;-84
2021/05/24 07:14:53;;;;;;;5.32;1.30;;;;;;;10.77;100.00;100763.97;5225137;28;20345;-85
2021/05/24 07:17:23;;;;;;;9.75;0.90;;;;;;;10.75;100.00;100761.47;5225242;28;20112;-84
2021/05/24 07:19:54;;;;;;;4.18;1.23;;;;;;;10.75;100.00;100761.47;5225183;28;20286;-84
2021/05/24 07:22:24;;;;;;;4.70;1.10;;;;;;;10.73;100.00;100760.75;5225122;28;20476;-84
2021/05/24 07:24:56;;;;;;;12.10;1.50;;;;;;;10.74;100.00;100762.44;5224236;28;20029;-83
2021/05/24 07:27:27;;;;;;;4.03;1.10;;;;;;;10.81;100.00;100758.09;5223647;28;20074;-83
2021/05/24 07:29:57;;;;;;;6.03;1.15;;;;;;;10.88;100.00;100759.06;5225337;28;20025;-84
2021/05/24 07:32:28;;;;;;;3.97;1.20;;;;;;;10.73;100.00;100754.56;5225414;28;20032;-84
2021/05/24 07:34:58;;;;;;;8.00;1.50;;;;;;;10.61;100.00;100764.81;5224299;28;20075;-84
2021/05/24 07:37:29;;;;;;;2.72;1.27;;;;;;;10.58;100.00;100751.72;5224527;28;20108;-84
2021/05/24 07:39:59;;;;;;;3.90;1.20;;;;;;;10.53;100.00;100746.03;5224151;28;20024;-84
2021/05/24 07:42:30;;;;;;;3.22;1.45;;;;;;;10.41;100.00;100758.13;5225637;28;20021;-84
2021/05/24 07:45:00;;;;;;;8.05;1.67;;;;;;;10.46;100.00;100750.41;5226051;28;20438;-84
2021/05/24 07:47:33;;;;;;;3.33;1.23;;;;;;;10.48;100.00;100751.06;5226611;28;20032;-84
2021/05/24 07:50:04;;;;;;;2.70;1.42;;;;;;;10.45;100.00;100752.25;5227164;28;20021;-84
2021/05/24 07:52:35;;;;;;;4.70;1.20;;;;;;;10.45;100.00;100754.94;5226559;28;20120;-85
2021/05/24 07:55:06;;;;;;;6.07;1.80;;;;;;;10.40;100.00;100756.44;5225504;28;20027;-85
2021/05/24 07:57:38;;;;;;;4.18;1.95;;;;;;;10.42;100.00;100749.88;5220121;28;20086;-84
2021/05/24 08:00:10;;;;;;;3.80;1.40;;;;;;;10.30;100.00;100745.88;5224924;28;20107;-85
2021/05/24 08:02:42;;;;;;;1.65;1.40;;;;;;;10.49;100.00;100748.22;5224560;28;20379;-84
2021/05/24 08:05:14;;;;;;;5.70;1.42;;;;;;;10.54;100.00;100745.00;5224403;28;20056;-83
2021/05/24 08:07:45;;;;;;;5.32;1.50;;;;;;;10.50;100.00;100741.84;5225516;28;20037;-84
2021/05/24 08:10:16;;;;;;;4.28;1.60;;;;;;;10.49;100.00;100753.59;5226184;28;20365;-84
2021/05/24 08:12:48;;;;;;;3.00;1.45;;;;;;;10.65;100.00;100750.06;5237216;28;20025;-85
2021/05/24 08:15:33;;;;;;;2.50;1.30;;;;;;;10.63;100.00;100750.22;5228093;28;20103;-84
2021/05/24 08:18:07;;;;;;;5.30;1.95;;;;;;;10.66;100.00;100740.16;5226554;28;20024;-85
2021/05/24 08:20:37;;;;;;;5.22;1.95;;;;;;;10.78;100.00;100742.31;5229723;28;20082;-83
2021/05/24 08:23:08;;;;;;;3.28;1.60;;;;;;;10.94;100.00;100744.13;5227210;28;20104;-83
2021/05/24 08:25:38;;;;;;;5.95;1.35;;;;;;;10.98;100.00;100741.94;5226192;28;20048;-84
2021/05/24 08:28:09;;;;;;;7.70;1.70;;;;;;;10.93;100.00;100738.94;5224405;28;20071;-84
2021/05/24 08:30:41;;;;;;;3.50;1.38;;;;;;;10.69;100.00;100746.00;5224497;28;20570;-84
2021/05/24 08:33:12;;;;;;;3.55;1.50;;;;;;;10.96;100.00;100738.59;5225408;28;20036;-85
2021/05/24 08:35:42;;;;;;;4.72;1.73;;;;;;;11.06;100.00;100732.03;5227972;28;20071;-85
2021/05/24 08:38:13;;;;;;;4.28;1.50;;;;;;;11.02;100.00;100738.75;5228986;28;20048;-84
2021/05/24 08:40:45;;;;;;;2.65;1.80;;;;;;;10.95;100.00;100740.47;5226571;28;20085;-85
2021/05/24 08:43:16;;;;;;;6.03;1.42;;;;;;;10.85;100.00;100739.81;5225776;28;20391;-84
2021/05/24 08:45:46;;;;;;;5.07;1.45;;;;;;;10.99;100.00;100732.88;5227448;28;20025;-84
2021/05/24 08:48:17;;;;;;;2.63;1.33;;;;;;;10.86;100.00;100736.09;5226031;28;20052;-85
2021/05/24 08:50:47;;;;;;;4.38;1.48;;;;;;;10.91;100.00;100738.28;5216183;28;20029;-84
2021/05/24 08:53:18;;;;;;;3.92;1.40;;;;;;;10.84;100.00;100738.97;5223128;28;20021;-84
2021/05/24 08:55:49;;;;;;;3.08;1.40;;;;;;;10.81;100.00;100738.47;5217758;28;20033;-84
2021/05/24 08:58:19;;;;;;;9.82;2.63;;;;;;;10.88;100.00;100739.44;5213707;28;20055;-84
2021/05/24 09:00:51;;;;;;;4.57;1.88;;;;;;;10.91;100.00;100738.28;5224994;28;20033;-85
2021/05/24 09:03:25;;;;;;;3.13;1.58;;;;;;;10.93;100.00;100742.47;5227006;28;20029;-84
2021/05/24 09:05:59;;;;;;;4.88;1.40;;;;;;;11.28;100.00;100745.72;5227963;28;20033;-85
2021/05/24 09:08:35;;;;;;;4.15;1.50;;;;;;;11.40;100.00;100737.13;5225957;28;20639;-84
2021/05/24 09:11:06;;;;;;;;;;;;;;;11.57;100.00;100740.56;5227430;28;20127;-85
2021/05/24 09:13:36;;;;;;;3.95;1.33;;;;;;;11.65;100.00;100745.91;5224459;28;19909;-85
2021/05/24 09:16:07;;;;;;;5.40;1.40;;;;;;;11.63;100.00;100733.66;5226818;28;20025;-84
2021/05/24 09:18:37;;;;;;;2.63;1.08;;;;;;;11.61;100.00;100730.31;5231550;28;20052;-84
2021/05/24 09:21:08;;;;;;;1.63;1.02;;;;;;;11.57;100.00;100732.50;5230070;28;20017;-84
2021/05/24 09:23:40;;;;;;;2.38;1.23;;;;;;;11.76;100.00;100733.91;5231305;28;20431;-84
2021/05/24 09:26:12;;;;;;;1.92;1.23;;;;;;;11.83;100.00;100737.59;5237572;28;20044;-84
2021/05/24 09:29:22;;;;;;;3.25;1.40;;;;;;;11.97;100.00;100757.50;5232125;28;20037;-85
2021/05/24 09:38:46;;;;;;;3.30;1.17;;;;;;;12.11;100.00;100737.94;5230866;28;20036;-84
2021/05/24 09:41:20;;;;;;;1.75;0.88;;;;;;;12.44;100.00;100727.75;5231193;28;20561;-84
2021/05/24 09:43:52;;;;;;;3.65;1.17;;;;;;;12.78;100.00;100730.97;5233498;28;20033;-84
2021/05/24 09:46:25;;;;;;;2.45;1.00;;;;;;;12.81;100.00;100723.38;5230275;28;20082;-85
2021/05/24 09:49:01;;;;;;;2.70;1.00;;;;;;;13.04;100.00;100728.66;5234628;28;20028;-85
2021/05/24 09:51:37;;;;;;;2.85;0.90;;;;;;;12.84;100.00;100730.25;5234650;28;20069;-85
2021/05/24 09:54:10;;;;;;;1.65;0.98;;;;;;;12.73;100.00;100734.22;5234343;28;20016;-84
2021/05/24 09:56:44;;;;;;;2.28;0.85;;;;;;;12.72;100.00;100724.47;5234617;28;20013;-84
2021/05/24 09:59:18;;;;;;;3.92;1.45;;;;;;;12.79;100.00;100727.25;5233972;28;20029;-84
2021/05/24 10:01:53;;;;;;;4.95;1.58;;;;;;;12.56;100.00;100722.78;5229997;28;20048;-84
2021/05/24 10:04:26;;;;;;;2.95;1.25;;;;;;;12.73;100.00;100719.94;5230884;28;20033;-85
2021/05/24 10:07:01;;;;;;;2.92;1.42;;;;;;;12.77;100.00;100718.53;5230471;28;20020;-85
2021/05/24 10:09:33;;;;;;;4.13;2.00;;;;;;;13.13;100.00;100707.88;5230232;28;20090;-85
2021/05/24 10:12:04;;;;;;;4.47;1.80;;;;;;;13.49;100.00;100713.34;5227658;28;20064;-84
2021/05/24 10:14:35;;;;;;;2.85;1.05;;;;;;;13.77;100.00;100712.66;5227304;28;20075;-85
2021/05/24 10:17:07;;;;;;;4.00;1.50;;;;;;;13.72;100.00;100707.84;5228730;28;20060;-85
2021/05/24 10:19:38;;;;;;;2.80;1.10;;;;;;;13.46;100.00;100705.66;5229293;28;20036;-85
2021/05/24 10:22:08;;;;;;;3.85;1.45;;;;;;;13.27;100.00;100717.00;5227515;28;20025;-85
2021/05/24 10:24:39;;;;;;;3.17;1.50;;;;;;;13.25;100.00;100713.66;5229239;28;20051;-85
2021/05/24 10:27:10;;;;;;;3.20;1.35;;;;;;;12.87;100.00;100708.34;5228268;28;20056;-84
2021/05/24 10:29:40;;;;;;;5.15;1.90;;;;;;;12.91;100.00;100712.34;5229543;28;20017;-84
2021/05/24 10:32:21;;;;;;;5.55;1.52;;;;;;;13.08;100.00;100711.13;5231349;28;20039;-84
2021/05/24 10:34:51;;;;;;;3.17;1.58;;;;;;;13.17;100.00;100707.31;5230985;28;20025;-84
2021/05/24 10:37:22;;;;;;;3.35;1.15;;;;;;;13.36;100.00;100716.72;5229273;28;20025;-84
2021/05/24 10:40:16;;;;;;;4.05;1.90;;;;;;;13.87;100.00;100713.19;5215740;28;20357;-84
2021/05/24 10:43:07;;;;;;;2.97;0.90;;;;;;;14.05;100.00;100716.25;5206906;28;20048;-84
2021/05/24 10:45:38;;;;;;;2.05;0.90;;;;;;;14.02;100.00;100708.56;5220159;28;20044;-84
2021/05/24 10:48:17;;;;;;;1.83;1.00;;;;;;;13.79;100.00;100713.28;5223001;28;20412;-84
2021/05/24 10:51:06;;;;;;;3.90;1.50;;;;;;;13.65;100.00;100710.44;5221902;28;20021;-85
2021/05/24 10:53:42;;;;;;;4.82;1.00;;;;;;;13.79;100.00;100697.09;5215057;28;20029;-84
2021/05/24 10:56:20;;;;;;;7.93;1.10;;;;;;;13.65;100.00;100698.81;5227385;28;20090;-84
2021/05/24 10:58:50;;;;;;;1.08;0.70;;;;;;;13.72;100.00;100703.28;5227960;28;20017;-84
2021/05/24 11:01:21;;;;;;;1.13;0.70;;;;;;;13.66;100.00;100701.34;5226688;28;20478;-87
2021/05/24 11:04:11;;;;;;;1.83;1.02;;;;;;;14.05;100.00;100715.44;5227360;28;20085;-84
2021/05/24 11:06:42;;;;;;;2.13;1.00;;;;;;;13.75;100.00;100707.44;5230276;28;20046;-84
2021/05/24 11:09:12;;;;;;;2.22;0.88;;;;;;;13.46;100.00;100702.97;5229396;28;20190;-84
2021/05/24 11:11:50;;;;;;;1.08;0.77;;;;;;;13.48;100.00;100709.81;5228448;28;20033;-85
2021/05/24 11:14:21;;;;;;;2.15;1.30;;;;;;;13.64;100.00;100706.06;5230604;28;20017;-84
2021/05/24 11:16:58;;;;;;;3.20;1.00;;;;;;;13.87;100.00;100705.91;5227475;28;20039;-84
2021/05/24 11:19:29;;;;;;;2.97;1.17;;;;;;;14.20;100.00;100700.84;5223129;28;20021;-84
2021/05/24 11:22:30;;;;;;;3.22;1.10;;;;;;;14.43;100.00;100708.75;5233643;28;20039;-83
2021/05/24 11:25:49;;;;;;;1.30;1.00;;;;;;;14.39;100.00;100699.34;5234453;28;20035;-84
2021/05/24 11:28:14;;;;;;;2.05;1.45;;;;;;;14.43;100.00;100711.44;5232051;28;20512;-84
2021/05/24 11:31:05;;;;;;;2.33;1.00;;;;;;;14.65;100.00;100701.47;5200339;28;20051;-83
2021/05/24 11:33:47;;;;;;;1.95;0.80;;;;;;;14.47;100.00;100695.69;5230684;28;20052;-85
2021/05/24 11:36:40;;;;;;;4.35;1.10;;;;;;;14.08;100.00;100698.88;5231157;28;20044;-84
2021/05/24 11:39:20;;;;;;;1.60;0.98;;;;;;;14.34;100.00;100699.09;5234327;28;20033;-84
2021/05/24 11:41:54;;;;;;;2.10;1.10;;;;;;;14.18;100.00;100699.38;5237105;28;20025;-84
2021/05/24 11:44:33;;;;;;;2.13;1.02;;;;;;;14.10;100.00;100697.63;5235635;28;20017;-83
2021/05/24 11:47:07;;;;;;;1.23;0.80;;;;;;;14.43;100.00;100694.41;5236346;28;20043;-85